createdAt,value
2022-12-25T00:01:48.671Z,99786.78
2022-12-25T00:04:18.191Z,99778.91
2022-12-25T00:06:45.963Z,99777.25
2022-12-25T00:09:13.575Z,99772.94
2022-12-25T00:11:41.352Z,99778.19
2022-12-25T00:14:08.925Z,99779.91
2022-12-25T00:16:36.637Z,99793.88
2022-12-25T00:19:04.286Z,99790.34
2022-12-25T00:21:33.993Z,99783.38
2022-12-25T00:24:01.615Z,99792.06
2022-12-25T00:26:29.406Z,99790.34
2022-12-25T00:28:57.547Z,99791.28
2022-12-25T00:31:25.560Z,99791.25
2022-12-25T00:33:53.378Z,99778.19
2022-12-25T00:36:22.107Z,99793.84
2022-12-25T00:38:51.216Z,99786.00
2022-12-25T00:41:40.036Z,99779.91
2022-12-25T00:44:07.824Z,99776.34
2022-12-25T00:46:35.643Z,99787.66
2022-12-25T00:49:03.279Z,99787.63
2022-12-25T00:51:31.115Z,99792.81
2022-12-25T00:54:00.085Z,99794.53
2022-12-25T00:56:29.926Z,99790.13
2022-12-25T00:58:57.532Z,99772.75
2022-12-25T01:01:25.380Z,99780.41
2022-12-25T01:03:53.701Z,99782.13
2022-12-25T01:06:21.462Z,99790.84
2022-12-25T01:09:04.179Z,99796.13
2022-12-25T01:11:47.528Z,99796.94
2022-12-25T01:14:15.353Z,99784.75
2022-12-25T01:16:43.234Z,99789.94
2022-12-25T01:19:11.099Z,99789.88
2022-12-25T01:21:39.024Z,99791.56
2022-12-25T01:24:07.337Z,99775.16
2022-12-25T01:26:35.098Z,99801.19
2022-12-25T01:29:04.083Z,99803.00
2022-12-25T01:31:31.922Z,99792.38
2022-12-25T01:33:59.539Z,99770.75
2022-12-25T01:36:27.337Z,99798.47
2022-12-25T01:38:56.032Z,99781.06
2022-12-25T01:41:24.640Z,99782.78
2022-12-25T01:44:00.886Z,99793.22
2022-12-25T01:46:38.698Z,99789.81
2022-12-25T01:49:07.617Z,99782.78
2022-12-25T01:51:36.862Z,99777.47
2022-12-25T01:54:09.284Z,99781.88
2022-12-25T01:56:37.047Z,99774.00
2022-12-25T01:59:04.644Z,99767.84
2022-12-25T02:01:32.389Z,99768.81
2022-12-25T02:04:03.824Z,99782.78
2022-12-25T02:06:31.501Z,99773.97
2022-12-25T02:08:59.523Z,99794.16
2022-12-25T02:11:44.838Z,99789.81
2022-12-25T02:14:12.404Z,99788.03
2022-12-25T02:16:56.813Z,99788.03
2022-12-25T02:19:39.078Z,99794.13
2022-12-25T02:22:09.311Z,99753.34
2022-12-25T02:24:51.602Z,99782.84
2022-12-25T02:27:23.527Z,99821.19
2022-12-25T02:29:54.867Z,99772.41
2022-12-25T02:32:25.357Z,99815.88
2022-12-25T02:34:53.061Z,99802.81
2022-12-25T02:37:25.092Z,99780.16
2022-12-25T02:39:58.941Z,99802.69
2022-12-25T02:42:53.789Z,99797.44
2022-12-25T02:45:43.118Z,99793.91
2022-12-25T02:48:28.565Z,99793.84
2022-12-25T02:51:13.850Z,99785.09
2022-12-25T02:54:04.609Z,99792.06
2022-12-25T02:56:49.893Z,99803.44
2022-12-25T02:59:35.385Z,99798.25
2022-12-25T03:02:22.438Z,99794.69
2022-12-25T03:05:08.121Z,99785.00
2022-12-25T03:07:36.362Z,99791.16
2022-12-25T03:10:23.570Z,99793.75
2022-12-25T03:12:51.845Z,99787.56
2022-12-25T03:15:37.794Z,99744.13
2022-12-25T03:18:08.218Z,99773.63
2022-12-25T03:20:53.502Z,99784.88
2022-12-25T03:23:41.278Z,99782.31
2022-12-25T03:26:26.591Z,99769.13
2022-12-25T03:28:54.184Z,99780.44
2022-12-25T03:31:24.535Z,99763.03
2022-12-25T03:34:28.323Z,99767.38
2022-12-25T03:37:08.686Z,99769.16
2022-12-25T03:39:52.354Z,99711.16
2022-12-25T03:42:37.920Z,99756.88
2022-12-25T03:51:48.866Z,99746.50
2022-12-25T03:54:34.232Z,99735.13
2022-12-25T03:57:19.435Z,99738.63
2022-12-25T04:00:04.878Z,99739.53
2022-12-25T04:02:50.126Z,99720.38
2022-12-25T04:05:35.432Z,99714.19
2022-12-25T04:08:22.458Z,99716.84
2022-12-25T04:11:07.962Z,99720.28
2022-12-25T04:13:54.963Z,99717.66
2022-12-25T04:16:40.130Z,99711.59
2022-12-25T04:19:25.377Z,99732.59
2022-12-25T04:22:10.491Z,99740.50
2022-12-25T04:24:57.252Z,99743.97
2022-12-25T04:27:42.458Z,99762.28
2022-12-25T04:30:28.641Z,99743.84
2022-12-25T04:33:16.080Z,99746.41
2022-12-25T04:36:05.365Z,99736.78
2022-12-25T04:38:33.009Z,99743.75
2022-12-25T04:41:02.241Z,99733.47
2022-12-25T04:43:30.069Z,99736.00
2022-12-25T04:45:58.520Z,99760.69
2022-12-25T04:48:26.281Z,99751.78
2022-12-25T04:50:54.048Z,99749.22
2022-12-25T04:53:21.677Z,99733.50
2022-12-25T04:55:49.556Z,99742.16
2022-12-25T04:58:18.477Z,99710.84
2022-12-25T05:00:46.333Z,99703.78
2022-12-25T05:03:14.055Z,99716.84
2022-12-25T05:05:41.931Z,99723.78
2022-12-25T05:08:09.507Z,99723.78
2022-12-25T05:10:37.131Z,99713.28
2022-12-25T05:13:04.741Z,99700.41
2022-12-25T05:15:33.836Z,99719.53
2022-12-25T05:18:01.590Z,99710.88
2022-12-25T05:20:32.164Z,99721.41
2022-12-25T05:23:02.564Z,99718.78
2022-12-25T05:25:30.157Z,99723.31
2022-12-25T05:27:57.953Z,99736.47
2022-12-25T05:30:25.562Z,99718.16
2022-12-25T05:32:54.744Z,99705.03
2022-12-25T05:35:22.669Z,99652.56
2022-12-25T05:37:50.519Z,99583.06
2022-12-25T05:40:18.362Z,99496.41
2022-12-25T05:42:46.181Z,99636.75
2022-12-25T05:45:14.017Z,99549.84
2022-12-25T05:47:41.828Z,99723.44
2022-12-25T05:50:11.355Z,99447.19
2022-12-25T05:52:39.159Z,99687.56
2022-12-25T05:55:07.510Z,99571.50
2022-12-25T05:57:35.322Z,99603.72
2022-12-25T06:00:03.180Z,99518.66
2022-12-25T06:02:31.093Z,99666.88
2022-12-25T06:04:59.294Z,99521.47
2022-12-25T06:07:28.596Z,99571.03
2022-12-25T06:09:56.438Z,99403.66
2022-12-25T06:12:24.442Z,99616.25
2022-12-25T06:14:52.484Z,99617.84
2022-12-25T06:17:20.357Z,99594.25
2022-12-25T06:19:48.065Z,99586.03
2022-12-25T06:22:15.867Z,99532.59
2022-12-25T06:24:45.170Z,99708.41
2022-12-25T06:27:12.926Z,99694.41
2022-12-25T06:29:40.798Z,99697.88
2022-12-25T06:32:08.605Z,99504.78
2022-12-25T06:34:36.347Z,99552.69
2022-12-25T06:37:04.257Z,99492.59
2022-12-25T06:39:32.048Z,99551.69
2022-12-25T06:42:01.183Z,99506.91
2022-12-25T06:44:29.070Z,99638.31
2022-12-25T06:46:56.879Z,99365.03
2022-12-25T06:49:25.288Z,99462.84
2022-12-25T06:51:53.051Z,99639.97
2022-12-25T06:54:20.707Z,99409.22
2022-12-25T06:56:48.727Z,99478.53
2022-12-25T06:59:18.017Z,99522.69
2022-12-25T07:01:46.899Z,99338.47
2022-12-25T07:04:16.936Z,99460.75
2022-12-25T07:06:44.662Z,99516.34
2022-12-25T07:09:13.706Z,99630.28
2022-12-25T07:11:41.811Z,99716.00
2022-12-25T07:14:23.721Z,99386.75
2022-12-25T07:16:51.777Z,99414.72
2022-12-25T07:19:19.613Z,99601.34
2022-12-25T07:21:47.721Z,99399.97
2022-12-25T07:24:19.397Z,99385.88
2022-12-25T07:26:48.307Z,99413.84
2022-12-25T07:29:16.189Z,99460.34
2022-12-25T07:31:45.304Z,99542.09
2022-12-25T07:34:13.173Z,99600.78
2022-12-25T07:36:41.001Z,99547.53
2022-12-25T07:39:10.562Z,99316.69
2022-12-25T07:41:38.372Z,99711.72
2022-12-25T07:44:06.254Z,99480.63
2022-12-25T07:46:34.130Z,99531.28
2022-12-25T07:49:03.426Z,99561.16
2022-12-25T07:51:31.131Z,99533.25
2022-12-25T07:53:58.889Z,99429.94
2022-12-25T07:56:26.612Z,99042.34
2022-12-25T07:58:54.735Z,99228.44
2022-12-25T08:01:24.045Z,99490.06
2022-12-25T08:03:52.332Z,99269.03
2022-12-25T08:06:21.612Z,99262.84
2022-12-25T08:08:49.545Z,99487.59
2022-12-25T08:11:17.267Z,99257.25
2022-12-25T08:13:45.164Z,99335.09
2022-12-25T08:16:13.168Z,99564.50
2022-12-25T08:18:43.015Z,99561.22
2022-12-25T08:21:11.603Z,99411.47
2022-12-25T08:23:41.940Z,99399.16
2022-12-25T08:26:11.427Z,99528.91
2022-12-25T08:28:39.174Z,99487.25
2022-12-25T08:31:08.665Z,99430.22
2022-12-25T08:33:36.916Z,99400.03
2022-12-25T08:36:05.624Z,99555.66
2022-12-25T08:38:33.620Z,99132.22
2022-12-25T08:41:02.765Z,99407.78
2022-12-25T08:43:30.522Z,99329.94
2022-12-25T08:45:58.389Z,99413.66
2022-12-25T08:48:26.482Z,99299.34
2022-12-25T08:50:54.529Z,99216.34
2022-12-25T08:53:22.467Z,99530.78
2022-12-25T08:55:50.424Z,99305.31
2022-12-25T08:58:19.714Z,99207.56
2022-12-25T09:00:48.447Z,99450.47
2022-12-25T09:03:16.199Z,99317.84
2022-12-25T09:05:43.883Z,99113.06
2022-12-25T09:08:11.779Z,99328.22
2022-12-25T09:10:39.606Z,99503.03
2022-12-25T09:13:07.484Z,99353.53
2022-12-25T09:15:39.952Z,99554.66
2022-12-25T09:18:08.081Z,99531.84
2022-12-25T09:20:39.054Z,99546.03
2022-12-25T09:23:13.291Z,99560.16
2022-12-25T09:25:41.629Z,99406.28
2022-12-25T09:28:09.440Z,99600.31
2022-12-25T09:30:38.766Z,99440.94
2022-12-25T09:33:07.093Z,99395.91
2022-12-25T09:35:34.966Z,99444.53
2022-12-25T09:38:02.657Z,99685.84
2022-12-25T09:40:31.600Z,99497.16
2022-12-25T09:42:59.563Z,99210.41
2022-12-25T09:45:29.922Z,99421.75
2022-12-25T09:48:07.283Z,99441.59
2022-12-25T09:50:57.041Z,99542.34
2022-12-25T09:53:25.505Z,99418.84
2022-12-25T09:56:00.051Z,99260.88
2022-12-25T09:58:27.846Z,99431.06
2022-12-25T10:00:57.425Z,99461.72
2022-12-25T10:03:33.227Z,99254.09
2022-12-25T10:06:12.566Z,99502.28
2022-12-25T10:08:52.485Z,99340.69
2022-12-25T10:11:25.072Z,99312.19
2022-12-25T10:14:05.764Z,99622.63
2022-12-25T10:17:35.561Z,99188.50
2022-12-25T10:20:08.354Z,99599.63
2022-12-25T10:22:38.608Z,99412.34
2022-12-25T10:25:17.037Z,99551.75
2022-12-25T10:27:47.150Z,99501.88
2022-12-25T10:30:19.437Z,99060.09
2022-12-25T10:33:12.104Z,99187.59
2022-12-25T10:35:56.420Z,99603.31
2022-12-25T10:38:27.006Z,99234.81
2022-12-25T10:41:44.986Z,99334.25
2022-12-25T10:44:28.138Z,99518.97
2022-12-25T10:46:57.068Z,99617.47
2022-12-25T10:49:36.811Z,99387.84
2022-12-25T10:55:28.448Z,99281.31
2022-12-25T10:58:21.179Z,99188.03
2022-12-25T11:04:25.969Z,99030.91
2022-12-25T11:06:58.298Z,99213.94
2022-12-25T11:09:27.552Z,99378.91
2022-12-25T11:12:04.328Z,99603.38
2022-12-25T11:14:36.246Z,99363.25
2022-12-25T11:17:08.862Z,99139.38
2022-12-25T11:19:36.652Z,99372.81
2022-12-25T11:22:05.216Z,99198.03
2022-12-25T11:24:35.097Z,99505.47
2022-12-25T11:27:03.803Z,99341.41
2022-12-25T11:29:54.009Z,99463.50
2022-12-25T11:32:23.493Z,99297.41
2022-12-25T11:34:51.676Z,99456.47
2022-12-25T11:37:22.334Z,98941.38
2022-12-25T11:39:51.843Z,99415.34
2022-12-25T11:42:22.857Z,99142.59
2022-12-25T11:44:53.287Z,99128.63
2022-12-25T11:53:18.654Z,99340.78
2022-12-25T11:55:55.652Z,99357.31
2022-12-25T11:58:24.434Z,99349.75
2022-12-25T12:00:53.243Z,99326.84
2022-12-25T12:06:02.800Z,99321.50
2022-12-25T12:08:30.420Z,99328.34
2022-12-25T12:11:17.030Z,99319.88
2022-12-25T12:13:52.125Z,99340.66
2022-12-25T12:16:19.857Z,99328.56
2022-12-25T12:18:50.581Z,99318.91
2022-12-25T12:21:21.664Z,99316.38
2022-12-25T12:23:50.768Z,99299.31
2022-12-25T12:26:21.179Z,99321.72
2022-12-25T12:28:48.885Z,99316.38
2022-12-25T12:31:16.512Z,99301.47
2022-12-25T12:33:48.750Z,99292.75
2022-12-25T12:36:16.392Z,99298.78
2022-12-25T12:38:44.510Z,99292.63
2022-12-25T12:41:13.789Z,99261.97
2022-12-25T12:43:43.639Z,99312.66
2022-12-25T12:46:17.772Z,99295.50
2022-12-25T12:48:46.451Z,99302.16
2022-12-25T12:51:15.617Z,99283.84
2022-12-25T12:56:29.763Z,99300.44
2022-12-25T12:58:58.790Z,99292.50
2022-12-25T13:01:40.958Z,99274.91
2022-12-25T13:04:24.314Z,99257.59
2022-12-25T13:06:54.981Z,99266.41
2022-12-25T13:09:28.713Z,99253.13
2022-12-25T13:11:56.343Z,99280.09
2022-12-25T13:14:25.401Z,99266.06
2022-12-25T13:16:53.532Z,99265.06
2022-12-25T13:19:22.813Z,99254.56
2022-12-25T13:21:54.779Z,99252.88
2022-12-25T13:24:23.463Z,99237.94
2022-12-25T13:26:52.154Z,99250.88
2022-12-25T13:29:35.154Z,99245.63
2022-12-25T13:32:04.540Z,99228.22
2022-12-25T13:34:33.366Z,99249.69
2022-12-25T13:37:02.777Z,99236.44
2022-12-25T13:39:30.435Z,99251.22
2022-12-25T13:42:08.177Z,99248.59
2022-12-25T13:44:43.036Z,99226.03
2022-12-25T13:47:22.315Z,99233.81
2022-12-25T13:49:50.170Z,99228.44
2022-12-25T13:52:21.096Z,99245.81
2022-12-25T13:55:01.624Z,99238.75
2022-12-25T13:57:31.583Z,99233.59
2022-12-25T14:00:00.671Z,99233.38
2022-12-25T14:02:32.695Z,99231.63
2022-12-25T14:05:00.599Z,99235.78
2022-12-25T14:07:28.235Z,99234.81
2022-12-25T14:09:58.603Z,99235.72
2022-12-25T14:12:26.194Z,99223.31
2022-12-25T14:14:54.641Z,99183.88
2022-12-25T14:17:23.881Z,99230.28
2022-12-25T14:20:07.924Z,99202.00
2022-12-25T14:22:38.469Z,99227.56
2022-12-25T14:25:14.948Z,99193.25
2022-12-25T14:27:48.146Z,99233.59
2022-12-25T14:30:16.173Z,99212.78
2022-12-25T14:32:46.611Z,99224.97
2022-12-25T14:35:19.732Z,99236.97
2022-12-25T14:37:56.432Z,99238.09
2022-12-25T14:40:26.662Z,99233.66
2022-12-25T14:42:57.986Z,99220.88
2022-12-25T14:45:31.067Z,99240.75
2022-12-25T14:48:02.774Z,99235.53
2022-12-25T14:50:32.557Z,99209.75
2022-12-25T14:53:00.271Z,99232.09
2022-12-25T14:55:28.747Z,99239.97
2022-12-25T14:57:58.515Z,99241.72
2022-12-25T15:00:28.353Z,99239.06
2022-12-25T15:02:57.522Z,99250.34
2022-12-25T15:05:32.365Z,99237.44
2022-12-25T15:08:15.983Z,99238.22
2022-12-25T15:11:01.587Z,99232.91
2022-12-25T15:13:30.765Z,99236.19
2022-12-25T15:15:59.790Z,99239.69
2022-12-25T15:18:28.820Z,99227.34
2022-12-25T15:20:57.954Z,99216.81
2022-12-25T15:23:26.265Z,99215.03
2022-12-25T15:25:53.990Z,99220.91
2022-12-25T15:28:21.793Z,99234.91
2022-12-25T15:30:50.749Z,99223.44
2022-12-25T15:33:19.078Z,99205.13
2022-12-25T15:35:46.828Z,99219.66
2022-12-25T15:38:16.150Z,99216.91
2022-12-25T15:40:43.808Z,99192.31
2022-12-25T15:43:38.833Z,99201.91
2022-12-25T15:46:01.804Z,99206.22
2022-12-25T15:48:29.611Z,99186.13
2022-12-25T15:50:57.241Z,99207.84
2022-12-25T15:53:26.877Z,99196.44
2022-12-25T15:55:54.653Z,99200.66
2022-12-25T15:58:22.264Z,99202.38
2022-12-25T16:00:51.159Z,99193.44
2022-12-25T16:03:18.853Z,99198.84
2022-12-25T16:05:46.652Z,99192.53
2022-12-25T16:08:14.277Z,99201.97
2022-12-25T16:10:43.481Z,99195.81
2022-12-25T16:13:11.294Z,99200.31
2022-12-25T16:15:38.963Z,99182.66
2022-12-25T16:18:07.069Z,99179.91
2022-12-25T16:20:35.586Z,99158.56
2022-12-25T16:23:03.464Z,99181.69
2022-12-25T16:25:31.230Z,99178.06
2022-12-25T16:28:03.226Z,99180.66
2022-12-25T16:30:30.878Z,99174.47
2022-12-25T16:32:58.544Z,99187.44
2022-12-25T16:35:26.298Z,99170.75
2022-12-25T16:37:53.996Z,99177.63
2022-12-25T16:40:21.595Z,99166.31
2022-12-25T16:42:49.267Z,99174.91
2022-12-25T16:45:18.525Z,99176.44
2022-12-25T16:47:46.295Z,99171.16
2022-12-25T16:50:14.073Z,99172.84
2022-12-25T16:52:42.273Z,99175.47
2022-12-25T16:55:10.857Z,99160.16
2022-12-25T16:57:38.658Z,99174.59
2022-12-25T17:00:08.657Z,99177.97
2022-12-25T17:02:38.268Z,99160.38
2022-12-25T17:05:06.759Z,99141.59
2022-12-25T17:07:34.591Z,99166.41
2022-12-25T17:10:02.490Z,99171.88
2022-12-25T17:12:30.233Z,99150.84
2022-12-25T17:14:58.103Z,99173.59
2022-12-25T17:17:29.858Z,99177.31
2022-12-25T17:19:59.165Z,99163.41
2022-12-25T17:22:27.142Z,99164.19
2022-12-25T17:24:54.962Z,99162.88
2022-12-25T17:27:22.961Z,99168.78
2022-12-25T17:29:50.797Z,99182.09
2022-12-25T17:32:18.520Z,99176.06
2022-12-25T17:34:46.246Z,99177.81
2022-12-25T17:37:15.340Z,99169.22
2022-12-25T17:39:43.029Z,99179.63
2022-12-25T17:42:10.744Z,99190.91
2022-12-25T17:44:38.578Z,99187.53
2022-12-25T17:47:06.464Z,99182.38
2022-12-25T17:49:34.233Z,99148.63
2022-12-25T17:52:02.004Z,99176.97
2022-12-25T17:54:31.007Z,99191.97
2022-12-25T17:56:58.757Z,99183.97
2022-12-25T17:59:29.386Z,99173.50
2022-12-25T18:01:57.270Z,99178.78
2022-12-25T18:04:25.265Z,99180.25
2022-12-25T18:06:53.159Z,99180.09
2022-12-25T18:09:20.828Z,99174.06
2022-12-25T18:11:50.154Z,99186.19
2022-12-25T18:14:17.816Z,99170.66
2022-12-25T18:16:46.161Z,99186.00
2022-12-25T18:19:14.264Z,99150.56
2022-12-25T18:21:42.965Z,99181.59
2022-12-25T18:24:10.729Z,99179.78
2022-12-25T18:26:38.632Z,99183.31
2022-12-25T18:29:07.954Z,99170.75
2022-12-25T18:31:35.819Z,99168.03
2022-12-25T18:34:03.585Z,99173.31
2022-12-25T18:36:31.536Z,99173.22
2022-12-25T18:39:01.244Z,99163.47
2022-12-25T18:41:30.411Z,99161.75
2022-12-25T18:44:18.685Z,99165.97
2022-12-25T18:46:47.881Z,99167.50
2022-12-25T18:49:15.731Z,99172.88
2022-12-25T18:51:43.593Z,99181.47
2022-12-25T18:56:41.331Z,99127.72
2022-12-25T18:59:09.174Z,99170.63
2022-12-25T19:01:37.195Z,99146.44
2022-12-25T19:04:12.560Z,99164.56
2022-12-25T19:06:40.727Z,99166.25
2022-12-25T19:09:09.719Z,99167.91
2022-12-25T19:11:42.051Z,99186.34
2022-12-25T19:14:13.735Z,99179.28
2022-12-25T19:16:41.795Z,99172.19
2022-12-25T19:19:12.032Z,99170.47
2022-12-25T19:21:39.856Z,99184.38
2022-12-25T19:24:08.006Z,99176.41
2022-12-25T19:26:36.583Z,99179.91
2022-12-25T19:29:04.478Z,99175.38
2022-12-25T19:31:32.412Z,99174.34
2022-12-25T19:34:00.167Z,99178.81
2022-12-25T19:36:29.281Z,99171.03
2022-12-25T19:38:57.193Z,99176.91
2022-12-25T19:41:24.888Z,99190.06
2022-12-25T19:43:52.566Z,99184.81
2022-12-25T19:46:21.685Z,99203.16
2022-12-25T19:48:49.433Z,99195.97
2022-12-25T19:51:18.123Z,99195.22
2022-12-25T19:53:47.279Z,99203.16
2022-12-25T19:56:15.131Z,99211.22
2022-12-25T19:58:42.918Z,99202.66
2022-12-25T20:01:13.928Z,99202.75
2022-12-25T20:03:46.339Z,99201.94
2022-12-25T20:06:18.751Z,99204.56
2022-12-25T20:08:47.948Z,99207.19
2022-12-25T20:11:15.782Z,99207.28
2022-12-25T20:13:43.653Z,99211.63
2022-12-25T20:16:11.542Z,99226.63
2022-12-25T20:18:39.424Z,99190.84
2022-12-25T20:21:08.128Z,99183.13
2022-12-25T20:23:36.010Z,99204.78
2022-12-25T20:26:05.458Z,99197.88
2022-12-25T20:28:33.743Z,99169.53
2022-12-25T20:31:06.192Z,99198.72
2022-12-25T20:33:34.454Z,99207.44
2022-12-25T20:36:02.302Z,99202.09
2022-12-25T20:38:30.007Z,99197.69
2022-12-25T20:41:26.256Z,99185.72
2022-12-25T20:43:51.193Z,99205.56
2022-12-25T20:46:19.142Z,99207.28
2022-12-25T20:48:46.951Z,99205.47
2022-12-25T20:51:15.926Z,99201.88
2022-12-25T20:53:43.889Z,99206.28
2022-12-25T20:56:12.044Z,99201.09
2022-12-25T20:58:39.989Z,99202.69
2022-12-25T21:01:10.303Z,99202.66
2022-12-25T21:03:39.617Z,99201.69
2022-12-25T21:06:08.227Z,99198.06
2022-12-25T21:08:36.481Z,99178.03
2022-12-25T21:11:09.067Z,99190.38
2022-12-25T21:13:38.744Z,99197.19
2022-12-25T21:16:07.347Z,99193.72
2022-12-25T21:18:36.755Z,99194.78
2022-12-25T21:21:06.754Z,99204.09
2022-12-25T21:23:35.078Z,99202.22
2022-12-25T21:26:11.103Z,99202.22
2022-12-25T21:28:38.801Z,99195.09
2022-12-25T21:31:09.270Z,99204.75
2022-12-25T21:33:55.682Z,99209.91
2022-12-25T21:36:26.671Z,99165.38
2022-12-25T21:38:55.626Z,99199.66
2022-12-25T21:41:23.386Z,99205.75
2022-12-25T21:43:51.076Z,99197.06
2022-12-25T21:46:19.227Z,99199.84
2022-12-25T21:48:48.945Z,99202.75
2022-12-25T21:51:35.663Z,99203.50
2022-12-25T21:54:03.808Z,99210.56
2022-12-25T21:56:31.783Z,99147.78
2022-12-25T21:59:01.001Z,99208.19
2022-12-25T22:01:28.940Z,99202.25
2022-12-25T22:03:58.206Z,99222.63
2022-12-25T22:06:43.872Z,99211.47
2022-12-25T22:09:11.549Z,99224.75
2022-12-25T22:11:56.927Z,99232.53
2022-12-25T22:14:52.511Z,99231.72
2022-12-25T22:17:40.123Z,99224.94
2022-12-25T22:20:11.261Z,99237.16
2022-12-25T22:22:39.067Z,99242.44
2022-12-25T22:25:06.992Z,99234.84
2022-12-25T22:27:35.310Z,99248.75
2022-12-25T22:30:03.101Z,99256.69
2022-12-25T22:32:30.791Z,99246.16
2022-12-25T22:34:58.677Z,99243.63
2022-12-25T22:37:27.759Z,99267.22
2022-12-25T22:39:55.508Z,99266.41
2022-12-25T22:42:23.226Z,99276.06
2022-12-25T22:44:51.011Z,99263.91
2022-12-25T22:47:21.449Z,99263.13
2022-12-25T22:49:49.584Z,99271.03
2022-12-25T22:52:17.232Z,99264.03
2022-12-25T22:54:46.448Z,99278.94
2022-12-25T22:57:14.163Z,99263.25
2022-12-25T22:59:42.068Z,99274.63
2022-12-25T23:02:09.891Z,99282.38
2022-12-25T23:04:37.954Z,99283.31
2022-12-25T23:07:05.745Z,99289.47
2022-12-25T23:09:33.423Z,99283.31
2022-12-25T23:12:02.743Z,99294.69
2022-12-25T23:14:41.776Z,99295.53
2022-12-25T23:17:30.712Z,99299.97
2022-12-25T23:20:15.804Z,99297.22
2022-12-25T23:23:06.435Z,99312.22
2022-12-25T23:25:52.715Z,99301.72
2022-12-25T23:28:35.724Z,99300.94
2022-12-25T23:31:03.585Z,99309.72
2022-12-25T23:33:32.996Z,99299.31
2022-12-25T23:36:00.855Z,99301.75
2022-12-25T23:38:28.588Z,99291.22
2022-12-25T23:40:56.302Z,99286.78
2022-12-25T23:43:25.377Z,99287.72
2022-12-25T23:45:53.251Z,99292.06
2022-12-25T23:48:20.921Z,99290.25
2022-12-25T23:50:48.757Z,99283.16
2022-12-25T23:53:16.439Z,99283.94
2022-12-25T23:55:47.502Z,99296.31
2022-12-25T23:58:17.766Z,99301.53
